createdAt,value
2023-11-02T21:06:52.008Z,87.21
2023-11-02T21:07:45.085Z,87.40
2023-11-02T21:08:45.033Z,87.35
2023-11-02T21:09:44.992Z,86.49
2023-11-02T21:10:44.923Z,87.21
2023-11-02T21:11:44.875Z,87.21
2023-11-02T21:12:44.839Z,87.21
2023-11-02T21:13:44.783Z,87.49
2023-11-02T21:14:44.744Z,87.59
2023-11-02T21:15:44.751Z,87.87
2023-11-02T21:16:44.668Z,88.07
2023-11-02T21:17:44.676Z,87.40
2023-11-02T21:18:44.688Z,87.87
2023-11-02T21:19:44.512Z,87.87
2023-11-02T21:20:44.458Z,88.11
2023-11-02T21:21:44.422Z,88.11
2023-11-02T21:22:44.395Z,88.26
2023-11-02T21:23:44.325Z,87.63
2023-11-02T21:24:44.351Z,88.07
2023-11-02T21:25:44.233Z,88.07
2023-11-02T21:26:44.194Z,87.78
2023-11-02T21:27:44.198Z,88.07
2023-11-02T21:28:44.101Z,87.59
2023-11-02T21:29:44.056Z,88.16
2023-11-02T21:30:44.048Z,88.16
2023-11-02T21:31:43.977Z,88.07
2023-11-02T21:32:43.960Z,88.83
2023-11-02T21:33:43.893Z,88.07
2023-11-02T21:34:43.831Z,88.73
2023-11-02T21:35:43.797Z,88.73
2023-11-02T21:36:43.771Z,87.87
2023-11-02T21:37:43.700Z,88.45
2023-11-02T21:38:43.687Z,88.07
2023-11-02T21:39:43.645Z,88.26
2023-11-02T21:40:43.664Z,88.35
2023-11-02T21:41:43.516Z,87.97
2023-11-02T21:42:43.517Z,87.87
2023-11-02T21:43:43.432Z,87.97
2023-11-02T21:44:43.377Z,88.83
2023-11-02T21:45:43.363Z,88.16
2023-11-02T21:46:43.291Z,88.45
2023-11-02T21:47:43.372Z,88.16
2023-11-02T21:48:43.307Z,88.45
2023-11-02T21:49:43.160Z,89.40
2023-11-02T21:50:43.119Z,88.73
2023-11-02T21:51:43.135Z,88.07
2023-11-02T21:52:43.018Z,88.73
2023-11-02T21:53:43.007Z,89.50
2023-11-02T21:54:43.071Z,89.50
2023-11-02T21:55:42.886Z,88.83
2023-11-02T21:56:42.840Z,89.02
2023-11-02T21:57:42.861Z,89.50
2023-11-02T21:58:42.766Z,89.97
2023-11-02T21:59:42.703Z,89.97
2023-11-02T22:00:42.700Z,90.83
2023-11-02T22:01:42.629Z,89.97
2023-11-02T22:02:42.579Z,90.73
2023-11-02T22:03:42.575Z,90.55
2023-11-02T22:04:42.528Z,90.83
2023-11-02T22:05:42.466Z,91.60
2023-11-02T22:06:42.429Z,91.21
2023-11-02T22:07:42.358Z,91.50
2023-11-02T22:08:42.297Z,92.46
2023-11-02T22:09:42.269Z,92.17
2023-11-02T22:10:42.228Z,93.41
2023-11-02T22:11:42.165Z,93.88
2023-11-02T22:12:42.134Z,93.41
2023-11-02T22:13:42.075Z,94.27
2023-11-02T22:14:42.072Z,94.27
2023-11-02T22:15:41.988Z,94.36
2023-11-02T22:16:41.938Z,94.84
2023-11-02T22:17:41.945Z,95.79
2023-11-02T22:18:41.896Z,96.03
2023-11-02T22:19:41.873Z,97.03
2023-11-02T22:20:41.768Z,97.37
2023-11-02T22:21:41.764Z,97.27
2023-11-02T22:22:41.674Z,97.27
2023-11-02T22:23:41.620Z,96.89
